createdAt,value
2018-07-26T00:00:35.268Z,0.00
2018-07-26T00:01:35.308Z,0.00
2018-07-26T00:02:35.349Z,0.00
2018-07-26T00:03:35.389Z,0.00
2018-07-26T00:04:35.429Z,0.00
2018-07-26T00:05:35.467Z,0.00
2018-07-26T00:06:35.509Z,0.00
2018-07-26T00:07:35.550Z,0.00
2018-07-26T00:08:35.593Z,0.00
2018-07-26T00:09:35.633Z,0.00
2018-07-26T00:10:35.672Z,0.00
2018-07-26T00:11:35.713Z,0.00
2018-07-26T00:12:35.774Z,0.00
2018-07-26T00:13:35.797Z,0.00
2018-07-26T00:14:35.842Z,0.00
2018-07-26T00:15:35.876Z,0.00
2018-07-26T00:16:35.914Z,0.00
2018-07-26T00:17:35.958Z,0.00
2018-07-26T00:18:36.001Z,0.00
2018-07-26T00:19:36.038Z,0.00
2018-07-26T00:20:36.074Z,0.00
2018-07-26T00:21:36.168Z,0.00
2018-07-26T00:22:36.157Z,0.00
2018-07-26T00:23:36.197Z,0.00
2018-07-26T00:24:36.238Z,0.00
2018-07-26T00:25:36.354Z,0.00
2018-07-26T00:26:36.323Z,0.00
2018-07-26T00:27:36.429Z,0.00
2018-07-26T00:28:36.407Z,0.00
2018-07-26T00:29:36.440Z,0.00
2018-07-26T00:30:36.480Z,0.00
2018-07-26T00:31:36.520Z,0.00
2018-07-26T00:32:36.560Z,0.00
2018-07-26T00:33:36.603Z,0.00
2018-07-26T00:34:36.649Z,0.00
2018-07-26T00:35:36.688Z,0.00
2018-07-26T00:36:36.722Z,0.00
2018-07-26T00:37:36.763Z,0.00
2018-07-26T00:38:36.802Z,0.00
2018-07-26T00:39:36.842Z,0.00
2018-07-26T00:40:36.882Z,0.00
2018-07-26T00:41:36.924Z,0.00
2018-07-26T00:42:36.963Z,0.00
2018-07-26T00:43:37.015Z,0.00
2018-07-26T00:44:37.045Z,0.00
2018-07-26T00:45:37.084Z,0.00
2018-07-26T00:46:37.133Z,0.00
2018-07-26T00:47:37.167Z,0.00
2018-07-26T00:48:37.206Z,0.00
2018-07-26T00:49:37.246Z,0.00
2018-07-26T00:50:37.297Z,0.00
2018-07-26T00:51:37.326Z,0.00
2018-07-26T00:52:37.365Z,0.00
2018-07-26T00:53:37.408Z,0.00
2018-07-26T00:54:37.448Z,0.00
2018-07-26T00:55:37.486Z,0.00
2018-07-26T00:56:37.533Z,0.00
2018-07-26T00:57:37.572Z,0.00
2018-07-26T00:58:37.609Z,0.00
2018-07-26T00:59:37.647Z,0.00
2018-07-26T01:00:37.689Z,0.00
2018-07-26T01:01:37.743Z,0.00
2018-07-26T01:02:37.772Z,0.00
2018-07-26T01:03:37.810Z,0.00
2018-07-26T01:04:37.847Z,0.00
2018-07-26T01:05:37.898Z,0.00
2018-07-26T01:06:37.928Z,0.00
2018-07-26T01:07:37.967Z,0.00
2018-07-26T01:08:38.009Z,0.00
2018-07-26T01:09:38.087Z,0.00
2018-07-26T01:10:38.087Z,0.00
2018-07-26T01:11:38.128Z,0.00
2018-07-26T01:12:38.171Z,0.00
2018-07-26T01:13:38.207Z,0.00
2018-07-26T01:14:38.247Z,0.00
2018-07-26T01:15:38.287Z,0.00
2018-07-26T01:16:38.327Z,0.00
2018-07-26T01:17:38.367Z,0.00
2018-07-26T01:18:38.406Z,0.00
2018-07-26T01:19:38.449Z,0.00
2018-07-26T01:20:38.488Z,0.00
2018-07-26T01:21:38.533Z,0.00
2018-07-26T01:22:38.568Z,0.00
2018-07-26T01:23:38.608Z,0.00
2018-07-26T01:24:38.658Z,0.00
2018-07-26T01:25:38.689Z,0.00
2018-07-26T01:26:38.728Z,0.00
2018-07-26T01:27:38.768Z,0.00
2018-07-26T01:28:38.806Z,0.00
2018-07-26T01:29:38.849Z,0.00
2018-07-26T01:30:38.887Z,0.00
2018-07-26T01:31:38.936Z,0.00
2018-07-26T01:32:38.967Z,0.00
2018-07-26T01:33:39.005Z,0.00
2018-07-26T01:34:39.047Z,0.00
2018-07-26T01:35:39.095Z,0.00
2018-07-26T01:36:39.125Z,0.00
2018-07-26T01:37:39.165Z,0.00
2018-07-26T01:38:39.205Z,0.00
2018-07-26T01:39:39.245Z,0.00
2018-07-26T01:40:39.292Z,0.00
2018-07-26T01:41:39.331Z,0.00
2018-07-26T01:42:39.365Z,0.00
2018-07-26T01:43:39.405Z,0.00
2018-07-26T01:44:39.450Z,0.00
2018-07-26T01:45:39.485Z,0.00
2018-07-26T01:46:39.524Z,0.00
2018-07-26T01:47:39.564Z,0.00
2018-07-26T01:48:39.604Z,0.00
2018-07-26T01:49:39.652Z,0.00
2018-07-26T01:50:39.683Z,0.00
2018-07-26T01:51:39.729Z,0.00
2018-07-26T01:52:39.771Z,0.00
2018-07-26T01:53:39.812Z,0.00
2018-07-26T01:54:39.845Z,0.00
2018-07-26T01:55:39.890Z,0.00
2018-07-26T01:56:39.925Z,0.00
2018-07-26T01:57:39.962Z,0.00
2018-07-26T01:58:40.005Z,0.00
2018-07-26T01:59:40.044Z,0.00
2018-07-26T02:00:40.082Z,0.00
2018-07-26T02:01:40.133Z,0.00
2018-07-26T02:02:40.162Z,0.00
2018-07-26T02:03:40.202Z,0.00
2018-07-26T02:04:40.242Z,0.00
2018-07-26T02:05:40.280Z,0.00
2018-07-26T02:06:40.320Z,0.00
2018-07-26T02:07:40.359Z,0.00
2018-07-26T02:08:40.398Z,0.00
2018-07-26T02:09:40.439Z,0.00
2018-07-26T02:10:40.488Z,0.00
2018-07-26T02:11:40.519Z,0.00
2018-07-26T02:12:40.561Z,0.00
2018-07-26T02:13:40.601Z,0.00
2018-07-26T02:14:40.637Z,0.00
2018-07-26T02:15:40.677Z,0.00
2018-07-26T02:16:40.715Z,0.00
2018-07-26T02:17:40.757Z,0.00
2018-07-26T02:18:40.798Z,0.00
2018-07-26T02:19:40.839Z,0.00
2018-07-26T02:20:40.876Z,0.00
2018-07-26T02:21:40.968Z,0.00
2018-07-26T02:22:40.957Z,0.00
2018-07-26T02:23:41.007Z,0.00
2018-07-26T02:24:41.038Z,0.00
2018-07-26T02:25:41.075Z,0.00
2018-07-26T02:26:41.124Z,0.00
2018-07-26T02:27:41.155Z,0.00
2018-07-26T02:28:41.245Z,0.00
2018-07-26T02:29:41.234Z,0.00
2018-07-26T02:30:41.272Z,0.00
2018-07-26T02:31:41.313Z,0.00
2018-07-26T02:32:41.354Z,0.00
2018-07-26T02:33:41.391Z,0.00
2018-07-26T02:34:41.439Z,0.00
2018-07-26T02:35:41.470Z,0.00
2018-07-26T02:36:41.579Z,0.00
2018-07-26T02:37:41.547Z,0.00
2018-07-26T02:38:41.601Z,0.00
2018-07-26T02:39:41.628Z,0.00
2018-07-26T02:40:41.669Z,0.00
2018-07-26T02:41:41.706Z,0.00
2018-07-26T02:42:41.750Z,0.00
2018-07-26T02:43:41.792Z,0.00
2018-07-26T02:44:41.840Z,0.00
2018-07-26T02:45:41.864Z,0.00
2018-07-26T02:46:41.903Z,0.00
2018-07-26T02:47:41.945Z,0.00
2018-07-26T02:48:41.983Z,0.00
2018-07-26T02:49:42.029Z,0.00
2018-07-26T02:50:42.062Z,0.00
2018-07-26T02:51:42.102Z,4.00
2018-07-26T02:52:42.140Z,4.00
2018-07-26T02:53:42.182Z,4.00
2018-07-26T02:54:42.223Z,0.00
2018-07-26T02:55:42.260Z,4.00
2018-07-26T02:56:42.297Z,4.00
2018-07-26T02:57:42.339Z,0.00
2018-07-26T02:58:42.378Z,4.00
2018-07-26T02:59:42.425Z,8.00
2018-07-26T03:00:42.455Z,4.00
2018-07-26T03:01:42.496Z,4.00
2018-07-26T03:02:42.540Z,8.00
2018-07-26T03:03:42.578Z,8.00
2018-07-26T03:04:42.613Z,12.00
2018-07-26T03:05:42.652Z,8.00
2018-07-26T03:06:42.696Z,12.00
2018-07-26T03:07:42.733Z,16.00
2018-07-26T03:08:42.820Z,16.00
2018-07-26T03:09:42.811Z,16.00
2018-07-26T03:10:42.851Z,20.00
2018-07-26T03:11:42.889Z,24.00
2018-07-26T03:12:42.930Z,24.00
2018-07-26T03:13:42.967Z,28.00
2018-07-26T03:14:43.007Z,32.00
2018-07-26T03:15:43.046Z,40.00
2018-07-26T03:16:43.084Z,44.00
2018-07-26T03:17:43.126Z,48.00
2018-07-26T03:18:43.165Z,56.00
2018-07-26T03:19:43.207Z,68.00
2018-07-26T03:20:43.253Z,72.00
2018-07-26T03:21:43.283Z,84.00
2018-07-26T03:22:43.322Z,92.00
2018-07-26T03:23:43.362Z,100.00
2018-07-26T03:24:43.399Z,116.00
2018-07-26T03:25:43.442Z,128.00
2018-07-26T03:26:43.479Z,140.00
2018-07-26T03:27:43.520Z,152.00
2018-07-26T03:28:43.559Z,172.00
2018-07-26T03:29:43.598Z,188.00
2018-07-26T03:30:43.638Z,208.00
2018-07-26T03:31:43.680Z,228.00
2018-07-26T03:32:43.715Z,248.00
2018-07-26T03:33:43.756Z,268.00
2018-07-26T03:34:43.794Z,288.00
2018-07-26T03:35:43.834Z,312.00
2018-07-26T03:36:43.872Z,336.00
2018-07-26T03:37:43.911Z,364.00
2018-07-26T03:38:43.951Z,392.00
2018-07-26T03:39:43.990Z,420.00
2018-07-26T03:40:44.028Z,452.00
2018-07-26T03:41:44.069Z,484.00
2018-07-26T03:42:44.106Z,524.00
2018-07-26T03:43:44.147Z,560.00
2018-07-26T03:44:44.185Z,596.00
2018-07-26T03:45:44.224Z,632.00
2018-07-26T03:46:44.264Z,676.00
2018-07-26T03:47:44.304Z,716.00
2018-07-26T03:48:44.344Z,764.00
2018-07-26T03:49:44.382Z,804.00
2018-07-26T03:50:44.426Z,852.00
2018-07-26T03:51:44.466Z,896.00
2018-07-26T03:52:44.518Z,948.00
2018-07-26T03:53:44.538Z,996.00
2018-07-26T03:54:44.579Z,1048.00
2018-07-26T03:55:44.621Z,1096.00
2018-07-26T03:56:44.658Z,1148.00
2018-07-26T03:57:44.757Z,1200.00
2018-07-26T03:58:44.735Z,1252.00
2018-07-26T03:59:44.774Z,1304.00
2018-07-26T04:00:44.811Z,1356.00
2018-07-26T04:01:44.851Z,1412.00
2018-07-26T04:02:44.892Z,1464.00
2018-07-26T04:03:44.930Z,1520.00
2018-07-26T04:04:44.967Z,1572.00
2018-07-26T04:05:45.006Z,1624.00
2018-07-26T04:06:45.047Z,1676.00
2018-07-26T04:07:45.086Z,1728.00
2018-07-26T04:08:45.124Z,1784.00
2018-07-26T04:09:45.164Z,1836.00
2018-07-26T04:10:45.202Z,1888.00
2018-07-26T04:11:45.243Z,1940.00
2018-07-26T04:12:45.280Z,1992.00
2018-07-26T04:13:45.329Z,2040.00
2018-07-26T04:14:45.360Z,2092.00
2018-07-26T04:15:45.399Z,2144.00
2018-07-26T04:16:45.438Z,2192.00
2018-07-26T04:17:45.478Z,2248.00
2018-07-26T04:18:45.518Z,2296.00
2018-07-26T04:19:45.556Z,2344.00
2018-07-26T04:20:45.596Z,2392.00
2018-07-26T04:21:45.642Z,2448.00
2018-07-26T04:22:45.674Z,2500.00
2018-07-26T04:23:45.712Z,2556.00
2018-07-26T04:24:45.752Z,2612.00
2018-07-26T04:25:45.793Z,2664.00
2018-07-26T04:26:45.831Z,2712.00
2018-07-26T04:27:45.870Z,2756.00
2018-07-26T04:28:45.910Z,2800.00
2018-07-26T04:29:45.968Z,2852.00
2018-07-26T04:30:45.989Z,2896.00
2018-07-26T04:31:46.041Z,2944.00
2018-07-26T04:32:46.066Z,2992.00
2018-07-26T04:33:46.108Z,3040.00
2018-07-26T04:34:46.150Z,3088.00
2018-07-26T04:35:46.189Z,3136.00
2018-07-26T04:36:46.231Z,3192.00
2018-07-26T04:37:46.264Z,3244.00
2018-07-26T04:38:46.302Z,3296.00
2018-07-26T04:39:46.342Z,3348.00
2018-07-26T04:40:46.383Z,3392.00
2018-07-26T04:41:46.421Z,3436.00
2018-07-26T04:42:46.461Z,3472.00
2018-07-26T04:43:46.508Z,3500.00
2018-07-26T04:44:46.540Z,3524.00
2018-07-26T04:45:46.581Z,3560.00
2018-07-26T04:46:46.621Z,3592.00
2018-07-26T04:47:46.664Z,3640.00
2018-07-26T04:48:46.738Z,3680.00
2018-07-26T04:49:46.738Z,3720.00
2018-07-26T04:50:46.778Z,3768.00
2018-07-26T04:51:46.817Z,3804.00
2018-07-26T04:52:46.918Z,3844.00
2018-07-26T04:53:46.896Z,3884.00
2018-07-26T04:54:46.936Z,3912.00
2018-07-26T04:55:46.986Z,3944.00
2018-07-26T04:56:47.016Z,3980.00
2018-07-26T04:57:47.054Z,4024.00
2018-07-26T04:58:47.095Z,4068.00
2018-07-26T04:59:47.141Z,4116.00
2018-07-26T05:00:47.172Z,4160.00
2018-07-26T05:01:47.211Z,4204.00
2018-07-26T05:02:47.252Z,4248.00
2018-07-26T05:03:47.291Z,4304.00
2018-07-26T05:04:47.334Z,4348.00
2018-07-26T05:05:47.369Z,4392.00
2018-07-26T05:06:47.411Z,4428.00
2018-07-26T05:07:47.449Z,4464.00
2018-07-26T05:08:47.488Z,4500.00
2018-07-26T05:09:47.529Z,4544.00
2018-07-26T05:10:47.568Z,4576.00
2018-07-26T05:11:47.608Z,4596.00
2018-07-26T05:12:47.648Z,4620.00
2018-07-26T05:13:47.688Z,4644.00
2018-07-26T05:14:47.727Z,4672.00
2018-07-26T05:15:47.768Z,4704.00
2018-07-26T05:16:47.805Z,4736.00
2018-07-26T05:17:47.848Z,4772.00
2018-07-26T05:18:47.887Z,4808.00
2018-07-26T05:19:47.926Z,4836.00
2018-07-26T05:20:47.968Z,4864.00
2018-07-26T05:21:48.005Z,4892.00
2018-07-26T05:22:48.046Z,4924.00
2018-07-26T05:23:48.085Z,4952.00
2018-07-26T05:24:48.126Z,4984.00
2018-07-26T05:25:48.165Z,5024.00
2018-07-26T05:26:48.204Z,5048.00
2018-07-26T05:27:48.275Z,5076.00
2018-07-26T05:28:48.284Z,5112.00
2018-07-26T05:29:48.324Z,5140.00
2018-07-26T05:30:48.365Z,5144.00
2018-07-26T05:31:48.408Z,5136.00
2018-07-26T05:32:48.444Z,5128.00
2018-07-26T05:33:48.483Z,5120.00
2018-07-26T05:34:48.525Z,5120.00
2018-07-26T05:35:48.563Z,5116.00
2018-07-26T05:36:48.605Z,5120.00
2018-07-26T05:37:48.683Z,5124.00
2018-07-26T05:38:48.684Z,5132.00
2018-07-26T05:39:48.724Z,5148.00
2018-07-26T05:40:48.765Z,5172.00
2018-07-26T05:41:48.805Z,5204.00
2018-07-26T05:42:48.846Z,5224.00
2018-07-26T05:43:48.884Z,5236.00
2018-07-26T05:44:48.923Z,5260.00
2018-07-26T05:45:48.965Z,5256.00
2018-07-26T05:46:49.005Z,5260.00
2018-07-26T05:47:49.045Z,5280.00
2018-07-26T05:48:49.087Z,5304.00
2018-07-26T05:49:49.125Z,5316.00
2018-07-26T05:50:49.180Z,5328.00
2018-07-26T05:51:49.208Z,5344.00
2018-07-26T05:52:49.248Z,5344.00
2018-07-26T05:53:49.287Z,5344.00
2018-07-26T05:54:49.328Z,5336.00
2018-07-26T05:55:49.372Z,5348.00
2018-07-26T05:56:49.413Z,5368.00
2018-07-26T05:57:49.452Z,5392.00
2018-07-26T05:58:49.492Z,5400.00
2018-07-26T05:59:49.530Z,5424.00
2018-07-26T06:00:49.570Z,5444.00
2018-07-26T06:01:49.611Z,5460.00
2018-07-26T06:02:49.652Z,5472.00
2018-07-26T06:03:49.692Z,5476.00
2018-07-26T06:04:49.737Z,5476.00
2018-07-26T06:05:49.773Z,5480.00
2018-07-26T06:06:49.814Z,5492.00
2018-07-26T06:07:49.855Z,5508.00
2018-07-26T06:08:49.894Z,5516.00
2018-07-26T06:09:49.935Z,5520.00
2018-07-26T06:10:49.975Z,5528.00
2018-07-26T06:11:50.025Z,5532.00
2018-07-26T06:12:50.060Z,5556.00
2018-07-26T06:13:50.098Z,5568.00
2018-07-26T06:14:50.139Z,5576.00
2018-07-26T06:15:50.180Z,5580.00
2018-07-26T06:16:50.220Z,5580.00
2018-07-26T06:17:50.262Z,5580.00
2018-07-26T06:18:50.308Z,5576.00
2018-07-26T06:19:50.345Z,5564.00
2018-07-26T06:20:50.385Z,5556.00
2018-07-26T06:21:50.428Z,5548.00
2018-07-26T06:22:50.467Z,5544.00
2018-07-26T06:23:50.510Z,5544.00
2018-07-26T06:24:50.547Z,5548.00
2018-07-26T06:25:50.589Z,5552.00
2018-07-26T06:26:50.630Z,5564.00
2018-07-26T06:27:50.693Z,5584.00
2018-07-26T06:28:50.716Z,5600.00
2018-07-26T06:29:50.753Z,5620.00
2018-07-26T06:30:50.797Z,5636.00
2018-07-26T06:31:50.838Z,5648.00
2018-07-26T06:32:50.880Z,5672.00
2018-07-26T06:33:50.920Z,5692.00
2018-07-26T06:34:50.960Z,5708.00
2018-07-26T06:35:51.004Z,5724.00
2018-07-26T06:36:51.041Z,5748.00
2018-07-26T06:37:51.084Z,5768.00
2018-07-26T06:38:51.133Z,5776.00
2018-07-26T06:39:51.167Z,5788.00
2018-07-26T06:40:51.208Z,5796.00
2018-07-26T06:41:51.267Z,5808.00
2018-07-26T06:42:51.293Z,5824.00
2018-07-26T06:43:51.335Z,5832.00
2018-07-26T06:44:51.377Z,5848.00
2018-07-26T06:45:51.417Z,5856.00
2018-07-26T06:46:51.458Z,5868.00
2018-07-26T06:47:51.500Z,5872.00
2018-07-26T06:48:51.542Z,5868.00
2018-07-26T06:49:51.583Z,5864.00
2018-07-26T06:50:51.624Z,5852.00
2018-07-26T06:51:51.675Z,5840.00
2018-07-26T06:52:51.757Z,5824.00
2018-07-26T06:53:51.753Z,5832.00
2018-07-26T06:54:51.793Z,5828.00
2018-07-26T06:55:51.839Z,5820.00
2018-07-26T06:56:51.877Z,5816.00
2018-07-26T06:57:51.919Z,5804.00
2018-07-26T06:58:51.961Z,5792.00
2018-07-26T06:59:52.005Z,5776.00
2018-07-26T07:00:52.060Z,5776.00
2018-07-26T07:01:52.094Z,5788.00
2018-07-26T07:02:52.134Z,5792.00
2018-07-26T07:03:52.173Z,5792.00
2018-07-26T07:04:52.213Z,5792.00
2018-07-26T07:05:52.257Z,5788.00
2018-07-26T07:06:52.300Z,5788.00
2018-07-26T07:07:52.340Z,5780.00
2018-07-26T07:08:52.386Z,5776.00
2018-07-26T07:09:52.425Z,5768.00
2018-07-26T07:10:52.477Z,5728.00
2018-07-26T07:11:52.510Z,5712.00
2018-07-26T07:12:52.557Z,5720.00
2018-07-26T07:13:52.595Z,5752.00
2018-07-26T07:14:52.639Z,5744.00
2018-07-26T07:15:52.681Z,5748.00
2018-07-26T07:16:52.722Z,5720.00
2018-07-26T07:17:52.766Z,5704.00
2018-07-26T07:18:52.816Z,5704.00
2018-07-26T07:19:52.852Z,5692.00
2018-07-26T07:20:52.894Z,5688.00
2018-07-26T07:21:52.938Z,5676.00
2018-07-26T07:22:52.983Z,5648.00
2018-07-26T07:23:53.027Z,5628.00
2018-07-26T07:24:53.068Z,5620.00
2018-07-26T07:25:53.108Z,5608.00
2018-07-26T07:26:53.151Z,5600.00
2018-07-26T07:27:53.252Z,5604.00
2018-07-26T07:28:53.237Z,5604.00
2018-07-26T07:29:53.278Z,5612.00
2018-07-26T07:30:53.322Z,5652.00
2018-07-26T07:31:53.365Z,5716.00
2018-07-26T07:32:53.407Z,5792.00
2018-07-26T07:33:53.450Z,5864.00
2018-07-26T07:34:53.493Z,5924.00
2018-07-26T07:35:53.536Z,5932.00
2018-07-26T07:36:53.578Z,5952.00
2018-07-26T07:37:53.624Z,5972.00
2018-07-26T07:38:53.666Z,6004.00
2018-07-26T07:39:53.709Z,5972.00
2018-07-26T07:40:53.755Z,6008.00
2018-07-26T07:41:53.795Z,5872.00
2018-07-26T07:42:53.837Z,5724.00
2018-07-26T07:43:53.882Z,5624.00
2018-07-26T07:44:53.923Z,5552.00
2018-07-26T07:45:53.968Z,5520.00
2018-07-26T07:46:54.010Z,5488.00
2018-07-26T07:47:54.054Z,5468.00
2018-07-26T07:48:54.095Z,5452.00
2018-07-26T07:49:54.140Z,5440.00
2018-07-26T07:50:54.186Z,5428.00
2018-07-26T07:51:54.237Z,5424.00
2018-07-26T07:52:54.372Z,5424.00
2018-07-26T07:53:54.314Z,5424.00
2018-07-26T07:54:54.359Z,5424.00
2018-07-26T07:55:54.400Z,5424.00
2018-07-26T07:56:54.444Z,5420.00
2018-07-26T07:57:54.487Z,5432.00
2018-07-26T07:58:54.531Z,5428.00
2018-07-26T07:59:54.614Z,5428.00
2018-07-26T08:00:54.616Z,5432.00
2018-07-26T08:01:54.660Z,5424.00
2018-07-26T08:02:54.705Z,5416.00
2018-07-26T08:03:54.748Z,5404.00
2018-07-26T08:04:54.791Z,5376.00
2018-07-26T08:05:54.837Z,5352.00
2018-07-26T08:06:54.881Z,5332.00
2018-07-26T08:07:54.924Z,5320.00
2018-07-26T08:08:54.967Z,5308.00
2018-07-26T08:09:55.010Z,5296.00
2018-07-26T08:10:55.064Z,5280.00
2018-07-26T08:11:55.099Z,5264.00
2018-07-26T08:12:55.145Z,5256.00
2018-07-26T08:13:55.189Z,5248.00
2018-07-26T08:14:55.230Z,5236.00
2018-07-26T08:15:55.274Z,5220.00
2018-07-26T08:16:55.318Z,5212.00
2018-07-26T08:17:55.361Z,5208.00
2018-07-26T08:18:55.406Z,5196.00
2018-07-26T08:19:55.460Z,5192.00
2018-07-26T08:20:55.502Z,5180.00
2018-07-26T08:21:55.538Z,5172.00
2018-07-26T08:22:55.582Z,5160.00
2018-07-26T08:23:55.626Z,5156.00
2018-07-26T08:24:55.670Z,5144.00
2018-07-26T08:25:55.715Z,5148.00
2018-07-26T08:26:55.757Z,5144.00
2018-07-26T08:27:55.802Z,5148.00
2018-07-26T08:28:55.847Z,5164.00
2018-07-26T08:29:55.891Z,5160.00
2018-07-26T08:30:55.936Z,5156.00
2018-07-26T08:31:55.980Z,5144.00
2018-07-26T08:32:56.030Z,5132.00
2018-07-26T08:33:56.146Z,5116.00
2018-07-26T08:34:56.179Z,5100.00
2018-07-26T08:35:56.161Z,5088.00
2018-07-26T08:36:56.200Z,5064.00
2018-07-26T08:37:56.253Z,5056.00
2018-07-26T08:38:56.289Z,5052.00
2018-07-26T08:39:56.333Z,5044.00
2018-07-26T08:40:56.454Z,5040.00
2018-07-26T08:41:56.437Z,5036.00
2018-07-26T08:42:56.469Z,5032.00
2018-07-26T08:43:56.512Z,5028.00
2018-07-26T08:44:56.558Z,5028.00
2018-07-26T08:45:56.605Z,5012.00
2018-07-26T08:46:56.647Z,5004.00
2018-07-26T08:47:56.693Z,5000.00
2018-07-26T08:48:56.736Z,5000.00
2018-07-26T08:49:56.779Z,4976.00
2018-07-26T08:50:56.825Z,4964.00
2018-07-26T08:51:56.868Z,4956.00
2018-07-26T08:52:56.915Z,4956.00
2018-07-26T08:53:56.969Z,4952.00
2018-07-26T08:54:57.023Z,4948.00
2018-07-26T08:55:57.046Z,4940.00
2018-07-26T08:56:57.093Z,4928.00
2018-07-26T08:57:57.143Z,4912.00
2018-07-26T08:58:57.180Z,4900.00
2018-07-26T08:59:57.224Z,4896.00
2018-07-26T09:00:57.269Z,4892.00
2018-07-26T09:01:57.313Z,4900.00
2018-07-26T09:02:57.375Z,4904.00
2018-07-26T09:03:57.403Z,4916.00
2018-07-26T09:04:57.446Z,4928.00
2018-07-26T09:05:57.492Z,4940.00
2018-07-26T09:06:57.544Z,4956.00
2018-07-26T09:07:57.584Z,4988.00
2018-07-26T09:08:57.626Z,4996.00
2018-07-26T09:09:57.699Z,5000.00
2018-07-26T09:10:57.729Z,5008.00
2018-07-26T09:11:57.761Z,5028.00
2018-07-26T09:12:57.806Z,5060.00
2018-07-26T09:13:57.852Z,5056.00
2018-07-26T09:14:57.895Z,5084.00
2018-07-26T09:15:57.940Z,5108.00
2018-07-26T09:16:58.002Z,5132.00
2018-07-26T09:17:58.035Z,5156.00
2018-07-26T09:18:58.075Z,5176.00
2018-07-26T09:19:58.120Z,5204.00
2018-07-26T09:20:58.165Z,5208.00
2018-07-26T09:21:58.210Z,5220.00
2018-07-26T09:22:58.254Z,5228.00
2018-07-26T09:23:58.300Z,5228.00
2018-07-26T09:24:58.345Z,5228.00
2018-07-26T09:25:58.389Z,5236.00
2018-07-26T09:26:58.436Z,5244.00
2018-07-26T09:27:58.480Z,5248.00
2018-07-26T09:28:58.538Z,5232.00
2018-07-26T09:29:58.578Z,5216.00
2018-07-26T09:30:58.615Z,5200.00
2018-07-26T09:31:58.660Z,5204.00
2018-07-26T09:32:58.769Z,5208.00
2018-07-26T09:33:58.750Z,5224.00
2018-07-26T09:34:58.795Z,5220.00
2018-07-26T09:35:58.840Z,5212.00
2018-07-26T09:36:58.889Z,5188.00
2018-07-26T09:37:58.931Z,5152.00
2018-07-26T09:38:58.985Z,5124.00
2018-07-26T09:39:59.022Z,5108.00
2018-07-26T09:40:59.072Z,5088.00
2018-07-26T09:41:59.113Z,5076.00
2018-07-26T09:42:59.159Z,5060.00
2018-07-26T09:43:59.204Z,5048.00
2018-07-26T09:44:59.247Z,5052.00
2018-07-26T09:45:59.293Z,5048.00
2018-07-26T09:46:59.338Z,5076.00
2018-07-26T09:47:59.384Z,5080.00
2018-07-26T09:48:59.429Z,5076.00
2018-07-26T09:49:59.489Z,5076.00
2018-07-26T09:50:59.531Z,5068.00
2018-07-26T09:51:59.566Z,5064.00
2018-07-26T09:52:59.613Z,5068.00
2018-07-26T09:53:59.660Z,5068.00
2018-07-26T09:54:59.718Z,5068.00
2018-07-26T09:55:59.759Z,5040.00
2018-07-26T09:56:59.794Z,5024.00
2018-07-26T09:57:59.839Z,4996.00
2018-07-26T09:58:59.886Z,4984.00
2018-07-26T09:59:59.932Z,4968.00
2018-07-26T10:00:59.977Z,4960.00
2018-07-26T10:02:00.025Z,4940.00
2018-07-26T10:03:00.069Z,4936.00
2018-07-26T10:04:00.115Z,4936.00
2018-07-26T10:05:00.160Z,4944.00
2018-07-26T10:06:00.206Z,4956.00
2018-07-26T10:07:00.316Z,4968.00
2018-07-26T10:08:00.308Z,4992.00
2018-07-26T10:09:00.354Z,5032.00
2018-07-26T10:10:00.389Z,5044.00
2018-07-26T10:11:00.434Z,5052.00
2018-07-26T10:12:00.480Z,5064.00
2018-07-26T10:13:00.525Z,5076.00
2018-07-26T10:14:00.577Z,5080.00
2018-07-26T10:15:00.619Z,5080.00
2018-07-26T10:16:00.690Z,5076.00
2018-07-26T10:17:00.706Z,5088.00
2018-07-26T10:18:00.760Z,5092.00
2018-07-26T10:19:00.800Z,5104.00
2018-07-26T10:20:00.904Z,5112.00
2018-07-26T10:21:00.889Z,5112.00
2018-07-26T10:22:00.937Z,5120.00
2018-07-26T10:23:00.982Z,5128.00
2018-07-26T10:24:01.028Z,5120.00
2018-07-26T10:25:01.076Z,5104.00
2018-07-26T10:26:01.119Z,5092.00
2018-07-26T10:27:01.163Z,5076.00
2018-07-26T10:28:01.212Z,5060.00
2018-07-26T10:29:01.256Z,5036.00
2018-07-26T10:30:01.300Z,5028.00
2018-07-26T10:31:01.349Z,5020.00
2018-07-26T10:32:01.396Z,5020.00
2018-07-26T10:33:01.441Z,5012.00
2018-07-26T10:34:01.492Z,5028.00
2018-07-26T10:35:01.536Z,5056.00
2018-07-26T10:36:01.589Z,5060.00
2018-07-26T10:37:01.624Z,5068.00
2018-07-26T10:38:01.668Z,5080.00
2018-07-26T10:39:01.715Z,5076.00
2018-07-26T10:40:01.760Z,5076.00
2018-07-26T10:41:01.806Z,5060.00
2018-07-26T10:42:01.864Z,5056.00
2018-07-26T10:43:01.902Z,5044.00
2018-07-26T10:44:01.954Z,5028.00
2018-07-26T10:45:01.990Z,5016.00
2018-07-26T10:46:02.034Z,5000.00
2018-07-26T10:47:02.088Z,5000.00
2018-07-26T10:48:02.137Z,4968.00
2018-07-26T10:49:02.183Z,4980.00
2018-07-26T10:50:02.325Z,4976.00
2018-07-26T10:51:02.273Z,4956.00
2018-07-26T10:52:02.312Z,4936.00
2018-07-26T10:53:02.358Z,4924.00
2018-07-26T10:54:02.411Z,4908.00
2018-07-26T10:55:02.450Z,4904.00
2018-07-26T10:56:02.497Z,4908.00
2018-07-26T10:57:02.542Z,4904.00
2018-07-26T10:58:02.589Z,4940.00
2018-07-26T10:59:02.637Z,4952.00
2018-07-26T11:00:02.685Z,4948.00
2018-07-26T11:01:02.726Z,4948.00
2018-07-26T11:02:02.776Z,4928.00
2018-07-26T11:03:02.819Z,4904.00
2018-07-26T11:04:02.866Z,4900.00
2018-07-26T11:05:02.931Z,4892.00
2018-07-26T11:06:02.958Z,4880.00
2018-07-26T11:07:03.004Z,4888.00
2018-07-26T11:08:03.053Z,4884.00
2018-07-26T11:09:03.096Z,4884.00
2018-07-26T11:10:03.143Z,4896.00
2018-07-26T11:11:03.191Z,4908.00
2018-07-26T11:12:03.235Z,4908.00
2018-07-26T11:13:03.280Z,4900.00
2018-07-26T11:14:03.327Z,4888.00
2018-07-26T11:15:03.437Z,4876.00
2018-07-26T11:16:03.423Z,4852.00
2018-07-26T11:17:03.470Z,4840.00
2018-07-26T11:18:03.516Z,4824.00
2018-07-26T11:19:03.640Z,4812.00
2018-07-26T11:20:03.604Z,4796.00
2018-07-26T11:21:03.670Z,4788.00
2018-07-26T11:22:03.700Z,4820.00
2018-07-26T11:23:03.752Z,4820.00
2018-07-26T11:24:03.800Z,4820.00
2018-07-26T11:25:03.842Z,4816.00
2018-07-26T11:26:03.882Z,4820.00
2018-07-26T11:27:03.937Z,4836.00
2018-07-26T11:28:03.996Z,4832.00
2018-07-26T11:29:04.023Z,4836.00
2018-07-26T11:30:04.106Z,4848.00
2018-07-26T11:31:04.118Z,4852.00
2018-07-26T11:32:04.161Z,4856.00
2018-07-26T11:33:04.210Z,4880.00
2018-07-26T11:34:04.253Z,4888.00
2018-07-26T11:35:04.298Z,4920.00
2018-07-26T11:36:04.350Z,4924.00
2018-07-26T11:37:04.390Z,4916.00
2018-07-26T11:38:04.436Z,4924.00
2018-07-26T11:39:04.481Z,4944.00
2018-07-26T11:40:04.534Z,4964.00
2018-07-26T11:41:04.575Z,4988.00
2018-07-26T11:42:04.624Z,5016.00
2018-07-26T11:43:04.667Z,5044.00
2018-07-26T11:44:04.713Z,5072.00
2018-07-26T11:45:04.775Z,5120.00
2018-07-26T11:46:04.809Z,5188.00
2018-07-26T11:47:04.854Z,5244.00
2018-07-26T11:48:04.915Z,5264.00
2018-07-26T11:49:04.945Z,5216.00
2018-07-26T11:50:05.040Z,5164.00
2018-07-26T11:51:05.040Z,5152.00
2018-07-26T11:52:05.089Z,5148.00
2018-07-26T11:53:05.132Z,5172.00
2018-07-26T11:54:05.179Z,5180.00
2018-07-26T11:55:05.231Z,5184.00
2018-07-26T11:56:05.271Z,5192.00
2018-07-26T11:57:05.316Z,5208.00
2018-07-26T11:58:05.365Z,5208.00
2018-07-26T11:59:05.421Z,5212.00
2018-07-26T12:00:05.456Z,5248.00
2018-07-26T12:01:05.512Z,5128.00
2018-07-26T12:02:05.553Z,5300.00
2018-07-26T12:03:05.595Z,5300.00
2018-07-26T12:04:05.642Z,5312.00
2018-07-26T12:05:05.699Z,5348.00
2018-07-26T12:06:05.744Z,5364.00
2018-07-26T12:07:05.782Z,5420.00
2018-07-26T12:08:05.847Z,5816.00
2018-07-26T12:09:05.875Z,6192.00
2018-07-26T12:10:05.922Z,6332.00
2018-07-26T12:11:05.971Z,6412.00
2018-07-26T12:12:06.018Z,6220.00
2018-07-26T12:13:06.060Z,5900.00
2018-07-26T12:14:06.108Z,5716.00
2018-07-26T12:15:06.156Z,5672.00
2018-07-26T12:16:06.208Z,5764.00
2018-07-26T12:17:06.248Z,5796.00
2018-07-26T12:18:06.296Z,5780.00
2018-07-26T12:19:06.346Z,5700.00
2018-07-26T12:20:06.396Z,5768.00
2018-07-26T12:21:06.536Z,6012.00
2018-07-26T12:22:06.483Z,5896.00
2018-07-26T12:23:06.641Z,5660.00
2018-07-26T12:24:06.575Z,5588.00
2018-07-26T12:25:06.632Z,5648.00